createdAt,value
2023-04-03T00:01:27.090Z,101341.06
2023-04-03T00:03:56.570Z,101338.38
2023-04-03T00:06:27.199Z,101343.41
2023-04-03T00:08:56.361Z,101347.53
2023-04-03T00:11:25.010Z,101345.59
2023-04-03T00:13:53.909Z,101349.84
2023-04-03T00:16:22.458Z,101350.63
2023-04-03T00:18:50.943Z,101348.69
2023-04-03T00:21:19.256Z,101354.75
2023-04-03T00:23:49.657Z,101350.25
2023-04-03T00:26:18.107Z,101357.97
2023-04-03T00:28:46.772Z,101358.63
2023-04-03T00:31:18.589Z,101355.91
2023-04-03T00:33:47.111Z,101348.06
2023-04-03T00:36:16.140Z,101349.63
2023-04-03T00:38:44.616Z,101352.22
2023-04-03T00:41:14.435Z,101345.00
2023-04-03T00:43:42.930Z,101345.00
2023-04-03T00:46:11.296Z,101347.56
2023-04-03T00:48:44.722Z,101367.28
2023-04-03T00:51:19.262Z,101354.28
2023-04-03T00:53:52.072Z,101360.97
2023-04-03T00:56:26.136Z,101357.47
2023-04-03T00:58:59.879Z,101348.75
2023-04-03T01:01:32.851Z,101357.25
2023-04-03T01:04:03.995Z,101361.34
2023-04-03T01:06:38.289Z,101366.38
2023-04-03T01:09:10.964Z,101364.59
2023-04-03T01:11:44.115Z,101360.09
2023-04-03T01:14:12.558Z,101360.72
2023-04-03T01:16:40.973Z,101357.13
2023-04-03T01:19:16.302Z,101371.66
2023-04-03T01:22:16.097Z,101362.91
2023-04-03T01:24:44.854Z,101371.16
2023-04-03T01:27:14.921Z,101370.25
2023-04-03T01:29:45.556Z,101370.25
2023-04-03T01:32:15.944Z,101364.88
2023-04-03T01:34:47.206Z,101366.66
2023-04-03T01:37:15.525Z,101360.50
2023-04-03T01:39:43.921Z,101354.31
2023-04-03T01:42:12.510Z,101366.28
2023-04-03T01:44:45.717Z,101359.22
2023-04-03T01:47:16.131Z,101366.13
2023-04-03T01:49:45.095Z,101367.69
2023-04-03T01:52:13.828Z,101368.34
2023-04-03T01:54:42.437Z,101364.84
2023-04-03T01:57:11.402Z,101367.44
2023-04-03T01:59:39.993Z,101376.72
2023-04-03T02:02:09.258Z,101370.53
2023-04-03T02:04:39.575Z,101367.72
2023-04-03T02:07:08.180Z,101370.28
2023-04-03T02:09:37.115Z,101368.47
2023-04-03T02:12:05.969Z,101376.97
2023-04-03T02:14:35.160Z,101378.63
2023-04-03T02:17:06.022Z,101376.06
2023-04-03T02:19:34.426Z,101378.75
2023-04-03T02:22:04.601Z,101383.91
2023-04-03T02:24:33.946Z,101383.91
2023-04-03T02:27:02.420Z,101380.28
2023-04-03T02:29:30.875Z,101382.88
2023-04-03T02:31:59.513Z,101381.81
2023-04-03T02:34:28.346Z,101386.19
2023-04-03T02:36:57.878Z,101395.72
2023-04-03T02:39:28.631Z,101386.97
2023-04-03T02:41:59.863Z,101395.47
2023-04-03T02:44:29.148Z,101398.06
2023-04-03T02:46:57.570Z,101393.69
2023-04-03T02:49:26.186Z,101397.78
2023-04-03T02:51:55.132Z,101391.63
2023-04-03T02:54:24.350Z,101403.44
2023-04-03T02:56:57.843Z,101395.72
2023-04-03T02:59:26.474Z,101409.19
2023-04-03T03:01:56.532Z,101406.53
2023-04-03T03:04:25.062Z,101397.78
2023-04-03T03:06:53.429Z,101399.31
2023-04-03T03:09:22.442Z,101400.88
2023-04-03T03:11:50.814Z,101402.38
2023-04-03T03:14:20.927Z,101397.25
2023-04-03T03:16:49.569Z,101398.78
2023-04-03T03:19:18.294Z,101403.91
2023-04-03T03:21:46.670Z,101400.44
2023-04-03T03:24:16.812Z,101400.34
2023-04-03T03:26:45.522Z,101405.47
2023-04-03T03:29:14.512Z,101413.94
2023-04-03T03:31:44.314Z,101406.25
2023-04-03T03:34:13.156Z,101403.41
2023-04-03T03:36:41.872Z,101404.94
2023-04-03T03:39:10.368Z,101407.38
2023-04-03T03:41:38.793Z,101406.47
2023-04-03T03:44:07.461Z,101405.56
2023-04-03T03:46:36.727Z,101412.38
2023-04-03T03:49:06.765Z,101403.66
2023-04-03T03:51:35.561Z,101407.75
2023-04-03T03:54:04.153Z,101402.34
2023-04-03T03:56:33.197Z,101404.47
2023-04-03T03:59:02.332Z,101405.91
2023-04-03T04:01:33.360Z,101401.38
2023-04-03T04:04:02.078Z,101410.66
2023-04-03T04:06:34.601Z,101416.41
2023-04-03T04:09:06.400Z,101415.41
2023-04-03T04:11:35.491Z,101416.91
2023-04-03T04:14:05.270Z,101408.16
2023-04-03T04:16:34.470Z,101422.81
2023-04-03T04:19:09.006Z,101416.66
2023-04-03T04:21:42.705Z,101414.72
2023-04-03T04:24:12.084Z,101419.56
2023-04-03T04:26:41.215Z,101416.91
2023-04-03T04:29:12.651Z,101421.75
2023-04-03T04:31:41.472Z,101424.31
2023-04-03T04:34:10.517Z,101424.31
2023-04-03T04:36:41.788Z,101423.31
2023-04-03T04:39:11.218Z,101428.28
2023-04-03T04:41:40.197Z,101426.47
2023-04-03T04:44:09.309Z,101433.13
2023-04-03T04:46:38.478Z,101434.03
2023-04-03T04:49:07.792Z,101437.25
2023-04-03T04:51:48.387Z,101444.81
2023-04-03T04:54:23.408Z,101447.13
2023-04-03T04:56:52.466Z,101450.47
2023-04-03T04:59:22.130Z,101446.09
2023-04-03T05:01:53.119Z,101445.81
2023-04-03T05:04:22.617Z,101447.06
2023-04-03T05:06:56.205Z,101444.25
2023-04-03T05:09:29.821Z,101451.78
2023-04-03T05:11:58.551Z,101445.66
2023-04-03T05:14:30.068Z,101458.34
2023-04-03T05:17:03.222Z,101449.59
2023-04-03T05:19:34.997Z,101458.69
2023-04-03T05:22:04.636Z,101463.69
2023-04-03T05:24:34.532Z,101463.53
2023-04-03T05:27:03.617Z,101467.75
2023-04-03T05:29:34.156Z,101476.88
2023-04-03T05:32:03.883Z,101478.53
2023-04-03T05:34:33.459Z,101492.00
2023-04-03T05:37:04.104Z,101490.06
2023-04-03T05:39:34.862Z,101486.31
2023-04-03T05:42:04.648Z,101494.63
2023-04-03T05:44:33.393Z,101497.19
2023-04-03T05:47:02.484Z,101499.75
2023-04-03T05:49:31.114Z,101508.97
2023-04-03T05:51:59.805Z,101508.84
2023-04-03T05:54:33.708Z,101520.03
2023-04-03T05:57:09.099Z,101509.63
2023-04-03T05:59:38.149Z,101518.97
2023-04-03T06:02:07.328Z,101517.91
2023-04-03T06:04:35.869Z,101521.72
2023-04-03T06:07:04.642Z,101531.09
2023-04-03T06:09:34.588Z,101524.78
2023-04-03T06:12:03.218Z,101537.06
2023-04-03T06:14:33.203Z,101526.38
2023-04-03T06:17:03.796Z,101526.72
2023-04-03T06:19:32.662Z,101520.53
2023-04-03T06:22:01.677Z,101527.31
2023-04-03T06:24:30.302Z,101535.91
2023-04-03T06:27:00.855Z,101527.31
2023-04-03T06:29:29.335Z,101541.53
2023-04-03T06:31:58.257Z,101548.91
2023-04-03T06:34:26.803Z,101539.47
2023-04-03T06:36:55.176Z,101525.09
2023-04-03T06:39:24.543Z,101528.22
2023-04-03T06:41:53.911Z,101525.81
2023-04-03T06:44:32.299Z,101531.22
2023-04-03T06:47:00.882Z,101537.25
2023-04-03T06:49:29.938Z,101525.47
2023-04-03T06:52:00.283Z,101524.22
2023-04-03T06:54:30.026Z,101527.97
2023-04-03T06:56:58.484Z,101524.78
2023-04-03T06:59:27.672Z,101527.63
2023-04-03T07:01:57.615Z,101540.75
2023-04-03T07:04:26.275Z,101546.63
2023-04-03T07:06:54.692Z,101543.81
2023-04-03T07:09:23.121Z,101535.94
2023-04-03T07:11:51.975Z,101541.84
2023-04-03T07:14:20.389Z,101547.13
2023-04-03T07:16:48.917Z,101549.69
2023-04-03T07:19:20.047Z,101551.63
2023-04-03T07:21:48.618Z,101554.06
2023-04-03T07:24:17.071Z,101545.16
2023-04-03T07:26:46.232Z,101552.59
2023-04-03T07:29:15.808Z,101560.88
2023-04-03T07:31:45.934Z,101571.31
2023-04-03T07:34:14.397Z,101576.44
2023-04-03T07:36:44.886Z,101577.50
2023-04-03T07:39:13.655Z,101566.75
2023-04-03T07:41:42.381Z,101564.59
2023-04-03T07:44:11.921Z,101581.94
2023-04-03T07:46:41.709Z,101570.13
2023-04-03T07:49:10.357Z,101583.13
2023-04-03T07:51:39.349Z,101579.03
2023-04-03T07:54:09.597Z,101578.75
2023-04-03T07:56:38.596Z,101579.94
2023-04-03T07:59:07.681Z,101579.31
2023-04-03T08:01:36.132Z,101577.81
2023-04-03T08:04:04.687Z,101573.84
2023-04-03T08:06:45.898Z,101582.34
2023-04-03T08:09:16.860Z,101571.63
2023-04-03T08:11:46.670Z,101586.41
2023-04-03T08:14:19.448Z,101582.47
2023-04-03T08:16:49.682Z,101583.13
2023-04-03T08:19:26.252Z,101579.31
2023-04-03T08:21:57.732Z,101570.50
2023-04-03T08:24:27.810Z,101567.72
2023-04-03T08:26:56.433Z,101569.78
2023-04-03T08:29:24.853Z,101570.25
2023-04-03T08:31:53.421Z,101565.50
2023-04-03T08:34:22.437Z,101576.34
2023-04-03T08:36:51.050Z,101576.44
2023-04-03T08:39:19.549Z,101569.53
2023-04-03T08:41:50.367Z,101569.78
2023-04-03T08:44:27.202Z,101575.47
2023-04-03T08:47:14.081Z,101573.44
2023-04-03T08:49:48.642Z,101592.03
2023-04-03T08:52:21.447Z,101576.59
2023-04-03T08:54:55.157Z,101580.31
2023-04-03T08:57:32.079Z,101582.28
2023-04-03T09:00:05.002Z,101585.25
2023-04-03T09:02:38.566Z,101596.97
2023-04-03T09:05:15.637Z,101590.06
2023-04-03T09:07:50.026Z,101588.03
2023-04-03T09:10:26.718Z,101576.47
2023-04-03T09:13:08.130Z,101582.28
2023-04-03T09:15:39.391Z,101572.00
2023-04-03T09:18:17.907Z,101575.72
2023-04-03T09:20:54.299Z,101567.78
2023-04-03T09:23:29.761Z,101569.34
2023-04-03T09:26:05.915Z,101572.56
2023-04-03T09:28:49.875Z,101574.75
2023-04-03T09:31:25.624Z,101572.72
2023-04-03T09:34:04.115Z,101570.56
2023-04-03T09:36:46.889Z,101571.44
2023-04-03T09:39:20.036Z,101575.03
2023-04-03T09:42:02.684Z,101577.38
2023-04-03T09:44:36.388Z,101567.31
2023-04-03T09:47:25.068Z,101566.69
2023-04-03T09:50:24.231Z,101569.03
2023-04-03T09:52:54.033Z,101568.63
2023-04-03T09:55:28.208Z,101554.97
2023-04-03T09:57:59.557Z,101567.84
2023-04-03T10:00:34.137Z,101552.41
2023-04-03T10:03:02.588Z,101552.53
2023-04-03T10:05:36.516Z,101553.72
2023-04-03T10:08:27.212Z,101552.28
2023-04-03T10:11:13.160Z,101549.31
2023-04-03T10:13:58.080Z,101546.53
2023-04-03T10:16:38.817Z,101544.94
2023-04-03T10:19:39.179Z,101554.75
2023-04-03T10:22:20.231Z,101552.19
2023-04-03T10:25:04.844Z,101550.13
2023-04-03T10:27:50.210Z,101556.53
2023-04-03T10:30:32.507Z,101550.22
2023-04-03T10:33:12.950Z,101546.44
2023-04-03T10:35:49.276Z,101542.56
2023-04-03T10:38:26.102Z,101543.19
2023-04-03T10:41:04.625Z,101541.88
2023-04-03T10:43:39.079Z,101539.03
2023-04-03T10:46:16.580Z,101529.22
2023-04-03T10:49:05.698Z,101538.09
2023-04-03T10:51:44.021Z,101527.28
2023-04-03T10:54:17.471Z,101526.72
2023-04-03T10:56:57.969Z,101531.34
2023-04-03T10:59:38.271Z,101519.34
2023-04-03T11:02:16.638Z,101498.31
2023-04-03T11:04:53.079Z,101509.13
2023-04-03T11:07:24.638Z,101507.78
2023-04-03T11:09:59.292Z,101498.88
2023-04-03T11:12:36.005Z,101504.50
2023-04-03T11:15:07.985Z,101508.34
2023-04-03T11:17:44.238Z,101496.06
2023-04-03T11:20:20.564Z,101495.75
2023-04-03T11:22:54.036Z,101490.31
2023-04-03T11:25:25.616Z,101480.22
2023-04-03T11:27:59.812Z,101491.56
2023-04-03T11:30:35.581Z,101477.31
2023-04-03T11:33:25.952Z,101491.38
2023-04-03T11:36:05.434Z,101471.63
2023-04-03T11:38:44.190Z,101476.00
2023-04-03T11:41:14.183Z,101466.81
2023-04-03T11:43:46.374Z,101475.03
2023-04-03T11:46:17.359Z,101465.03
2023-04-03T11:48:54.203Z,101457.63
2023-04-03T11:51:48.167Z,101474.94
2023-04-03T11:54:53.289Z,101467.06
2023-04-03T11:57:48.923Z,101455.38
2023-04-03T12:00:52.312Z,101452.03
2023-04-03T12:03:59.170Z,101459.69
2023-04-03T12:07:17.406Z,101457.19
2023-04-03T12:10:24.813Z,101458.56
2023-04-03T12:13:03.681Z,101460.47
2023-04-03T12:15:54.676Z,101469.59
2023-04-03T12:19:03.758Z,101450.03
2023-04-03T12:22:16.521Z,101447.47
2023-04-03T12:24:47.976Z,101442.06
2023-04-03T12:27:46.776Z,101460.13
2023-04-03T12:30:23.326Z,101437.91
2023-04-03T12:33:23.074Z,101433.00
2023-04-03T12:36:08.741Z,101439.03
2023-04-03T12:39:16.779Z,101434.88
2023-04-03T12:41:54.850Z,101428.03
2023-04-03T12:44:44.482Z,101420.53
2023-04-03T12:47:28.028Z,101423.53
2023-04-03T12:49:58.037Z,101415.44
2023-04-03T12:52:35.935Z,101401.97
2023-04-03T12:55:20.694Z,101412.53
2023-04-03T12:57:50.278Z,101399.81
2023-04-03T13:00:33.350Z,101396.00
2023-04-03T13:03:04.097Z,101399.03
2023-04-03T13:05:36.809Z,101414.13
2023-04-03T13:08:09.119Z,101405.91
2023-04-03T13:10:52.892Z,101405.34
2023-04-03T13:13:24.009Z,101402.84
2023-04-03T13:15:54.478Z,101420.41
2023-04-03T13:18:33.821Z,101399.03
2023-04-03T13:21:07.359Z,101412.28
2023-04-03T13:23:39.265Z,101397.78
2023-04-03T13:26:10.543Z,101392.72
2023-04-03T13:28:41.681Z,101386.84
2023-04-03T13:31:34.258Z,101377.66
2023-04-03T13:34:08.880Z,101381.34
2023-04-03T13:36:40.302Z,101388.50
2023-04-03T13:39:24.618Z,101387.72
2023-04-03T13:41:56.380Z,101384.34
2023-04-03T13:44:37.266Z,101384.53
2023-04-03T13:47:20.970Z,101396.69
2023-04-03T13:50:04.269Z,101381.19
2023-04-03T13:52:36.895Z,101375.22
2023-04-03T13:55:25.628Z,101366.66
2023-04-03T13:58:00.972Z,101366.09
2023-04-03T14:00:36.354Z,101359.53
2023-04-03T14:03:14.757Z,101362.22
2023-04-03T14:05:43.113Z,101370.00
2023-04-03T14:08:12.089Z,101356.88
2023-04-03T14:10:41.583Z,101356.16
2023-04-03T14:13:17.249Z,101355.69
2023-04-03T14:15:48.777Z,101343.75
2023-04-03T14:18:20.960Z,101354.63
2023-04-03T14:20:51.469Z,101347.06
2023-04-03T14:23:19.835Z,101350.75
2023-04-03T14:25:48.637Z,101355.16
2023-04-03T14:28:21.987Z,101340.72
2023-04-03T14:30:53.501Z,101358.03
2023-04-03T14:33:24.221Z,101339.13
2023-04-03T14:35:53.671Z,101332.38
2023-04-03T14:38:27.380Z,101336.84
2023-04-03T14:41:03.516Z,101336.19
2023-04-03T14:43:40.841Z,101339.78
2023-04-03T14:46:16.355Z,101331.41
2023-04-03T14:48:57.879Z,101325.53
2023-04-03T14:51:27.138Z,101327.22
2023-04-03T14:53:56.875Z,101329.81
2023-04-03T14:56:28.885Z,101330.63
2023-04-03T14:59:03.361Z,101325.09
2023-04-03T15:01:33.096Z,101323.25
2023-04-03T15:04:01.574Z,101319.63
2023-04-03T15:06:38.087Z,101318.06
2023-04-03T15:09:06.449Z,101322.22
2023-04-03T15:11:34.770Z,101321.25
2023-04-03T15:14:04.475Z,101318.44
2023-04-03T15:16:32.997Z,101315.44
2023-04-03T15:19:01.718Z,101309.16
2023-04-03T15:21:30.176Z,101302.97
2023-04-03T15:23:59.979Z,101308.03
2023-04-03T15:26:29.730Z,101324.56
2023-04-03T15:28:58.482Z,101321.19
2023-04-03T15:31:28.427Z,101325.34
2023-04-03T15:33:56.909Z,101316.50
2023-04-03T15:36:34.277Z,101313.03
2023-04-03T15:39:03.735Z,101312.00
2023-04-03T15:41:32.189Z,101313.63
2023-04-03T15:44:00.924Z,101317.78
2023-04-03T15:46:31.328Z,101314.41
2023-04-03T15:48:59.779Z,101314.28
2023-04-03T15:51:28.177Z,101315.97
2023-04-03T15:53:56.594Z,101315.19
2023-04-03T15:56:24.995Z,101327.34
2023-04-03T15:58:53.383Z,101332.28
2023-04-03T16:01:21.848Z,101329.50
2023-04-03T16:03:52.011Z,101322.41
2023-04-03T16:06:20.728Z,101324.91
2023-04-03T16:08:51.177Z,101330.88
2023-04-03T16:11:20.317Z,101328.06
2023-04-03T16:13:48.685Z,101325.16
2023-04-03T16:16:17.714Z,101338.88
2023-04-03T16:18:47.829Z,101344.75
2023-04-03T16:21:18.833Z,101328.72
2023-04-03T16:23:47.874Z,101335.38
2023-04-03T16:26:18.366Z,101330.66
2023-04-03T16:28:46.978Z,101334.63
2023-04-03T16:31:15.747Z,101337.69
2023-04-03T16:33:44.216Z,101325.41
2023-04-03T16:36:12.780Z,101326.19
2023-04-03T16:38:42.566Z,101334.06
2023-04-03T16:41:10.904Z,101333.16
2023-04-03T16:43:39.316Z,101335.56
2023-04-03T16:46:07.971Z,101320.72
2023-04-03T16:48:36.721Z,101329.06
2023-04-03T16:51:05.911Z,101329.84
2023-04-03T16:53:34.316Z,101338.38
2023-04-03T16:56:04.066Z,101327.25
2023-04-03T16:58:32.474Z,101344.44
2023-04-03T17:01:01.129Z,101333.00
2023-04-03T17:03:29.605Z,101341.66
2023-04-03T17:05:58.725Z,101344.13
2023-04-03T17:08:27.358Z,101348.13
2023-04-03T17:10:56.369Z,101347.22
2023-04-03T17:13:32.020Z,101343.78
2023-04-03T17:16:01.271Z,101355.66
2023-04-03T17:18:30.310Z,101353.75
2023-04-03T17:20:59.428Z,101353.56
2023-04-03T17:23:29.746Z,101352.78
2023-04-03T17:25:58.341Z,101355.22
2023-04-03T17:28:29.228Z,101353.56
2023-04-03T17:30:58.045Z,101338.03
2023-04-03T17:33:28.466Z,101332.75
2023-04-03T17:35:59.297Z,101345.56
2023-04-03T17:38:27.770Z,101342.78
2023-04-03T17:40:59.118Z,101350.28
2023-04-03T17:43:30.140Z,101344.25
2023-04-03T17:46:03.895Z,101338.97
2023-04-03T17:48:32.627Z,101343.09
2023-04-03T17:51:01.169Z,101342.91
2023-04-03T17:53:29.556Z,101337.50
2023-04-03T17:55:58.171Z,101345.03
2023-04-03T17:58:28.400Z,101334.72
2023-04-03T18:00:57.951Z,101337.97
2023-04-03T18:03:26.631Z,101354.16
2023-04-03T18:05:55.530Z,101336.41
2023-04-03T18:08:24.016Z,101338.66
2023-04-03T18:10:53.133Z,101336.75
2023-04-03T18:13:21.513Z,101332.34
2023-04-03T18:15:52.128Z,101346.09
2023-04-03T18:18:20.676Z,101341.69
2023-04-03T18:20:49.240Z,101346.94
2023-04-03T18:23:17.780Z,101355.72
2023-04-03T18:25:47.645Z,101350.56
2023-04-03T18:28:16.233Z,101355.50
2023-04-03T18:30:45.485Z,101354.59
2023-04-03T18:33:15.299Z,101354.69
2023-04-03T18:35:44.002Z,101345.97
2023-04-03T18:38:12.831Z,101352.81
2023-04-03T18:40:42.782Z,101348.66
2023-04-03T18:43:11.930Z,101352.94
2023-04-03T18:45:41.167Z,101356.41
2023-04-03T18:48:09.821Z,101356.41
2023-04-03T18:50:40.034Z,101354.59
2023-04-03T18:53:08.494Z,101359.78
2023-04-03T18:55:37.135Z,101365.16
2023-04-03T18:58:06.062Z,101362.69
2023-04-03T19:00:34.751Z,101358.53
2023-04-03T19:03:03.306Z,101365.38
2023-04-03T19:05:32.441Z,101361.00
2023-04-03T19:08:02.384Z,101372.22
2023-04-03T19:10:31.975Z,101367.84
2023-04-03T19:13:00.518Z,101379.75
2023-04-03T19:15:29.402Z,101369.41
2023-04-03T19:17:57.784Z,101371.91
2023-04-03T19:20:26.807Z,101376.16
2023-04-03T19:22:56.268Z,101374.38
2023-04-03T19:25:26.305Z,101375.03
2023-04-03T19:27:54.894Z,101371.31
2023-04-03T19:30:24.669Z,101366.81
2023-04-03T19:32:53.232Z,101371.91
2023-04-03T19:35:21.819Z,101370.75
2023-04-03T19:37:51.161Z,101375.91
2023-04-03T19:40:20.508Z,101378.38
2023-04-03T19:42:50.564Z,101376.59
2023-04-03T19:45:19.935Z,101377.25
2023-04-03T19:47:48.406Z,101372.78
2023-04-03T19:50:17.090Z,101374.34
2023-04-03T19:52:45.810Z,101377.81
2023-04-03T19:55:14.822Z,101378.59
2023-04-03T19:57:43.252Z,101376.81
2023-04-03T20:00:14.947Z,101368.16
2023-04-03T20:02:43.574Z,101371.50
2023-04-03T20:05:12.647Z,101382.66
2023-04-03T20:07:41.625Z,101371.44
2023-04-03T20:10:12.074Z,101376.34
2023-04-03T20:12:41.150Z,101379.63
2023-04-03T20:15:12.610Z,101371.63
2023-04-03T20:17:41.355Z,101371.63
2023-04-03T20:20:12.446Z,101369.81
2023-04-03T20:22:41.928Z,101376.56
2023-04-03T20:25:17.451Z,101367.16
2023-04-03T20:27:54.318Z,101365.34
2023-04-03T20:30:24.755Z,101371.41
2023-04-03T20:32:53.432Z,101366.91
2023-04-03T20:35:22.162Z,101362.63
2023-04-03T20:37:50.801Z,101354.78
2023-04-03T20:40:19.516Z,101358.38
2023-04-03T20:42:47.845Z,101360.06
2023-04-03T20:45:16.780Z,101356.56
2023-04-03T20:47:46.774Z,101354.78
2023-04-03T20:50:16.024Z,101347.84
2023-04-03T20:52:44.657Z,101346.81
2023-04-03T20:55:13.026Z,101342.31
2023-04-03T20:57:42.711Z,101342.22
2023-04-03T21:00:13.807Z,101351.63
2023-04-03T21:02:42.583Z,101340.41
2023-04-03T21:05:13.790Z,101337.06
2023-04-03T21:08:38.753Z,101339.28
2023-04-03T21:12:03.746Z,101342.25
2023-04-03T21:15:28.198Z,101342.69
2023-04-03T21:18:22.580Z,101345.06
2023-04-03T21:20:51.310Z,101341.56
2023-04-03T21:23:20.460Z,101341.69
2023-04-03T21:25:50.302Z,101342.59
2023-04-03T21:28:19.089Z,101342.59
2023-04-03T21:30:47.527Z,101347.75
2023-04-03T21:33:17.543Z,101348.53
2023-04-03T21:35:46.183Z,101350.09
2023-04-03T21:38:15.405Z,101356.94
2023-04-03T21:40:46.651Z,101358.50
2023-04-03T21:43:15.091Z,101353.22
2023-04-03T21:45:43.560Z,101357.34
2023-04-03T21:48:15.992Z,101360.72
2023-04-03T21:50:45.885Z,101357.22
2023-04-03T21:53:15.664Z,101350.19
2023-04-03T21:55:44.222Z,101350.97
2023-04-03T21:58:12.585Z,101355.09
2023-04-03T22:00:42.108Z,101353.06
2023-04-03T22:03:10.941Z,101351.16
2023-04-03T22:05:39.494Z,101351.94
2023-04-03T22:08:09.681Z,101344.09
2023-04-03T22:10:41.093Z,101347.56
2023-04-03T22:13:10.426Z,101341.28
2023-04-03T22:15:43.661Z,101331.75
2023-04-03T22:18:12.559Z,101336.78
2023-04-03T22:20:44.262Z,101328.13
2023-04-03T22:23:14.522Z,101324.53
2023-04-03T22:25:43.234Z,101321.88
2023-04-03T22:28:13.312Z,101332.06
2023-04-03T22:30:42.695Z,101323.41
2023-04-03T22:33:11.084Z,101317.13
2023-04-03T22:35:47.822Z,101324.97
2023-04-03T22:38:18.108Z,101317.13
2023-04-03T22:40:46.900Z,101311.06
2023-04-03T22:43:15.349Z,101315.34
2023-04-03T22:45:50.370Z,101310.06
2023-04-03T22:48:18.917Z,101310.72
2023-04-03T22:50:48.574Z,101313.31
2023-04-03T22:53:18.968Z,101314.09
2023-04-03T22:55:56.120Z,101317.44
2023-04-03T22:58:26.441Z,101316.41
2023-04-03T23:00:55.819Z,101319.00
2023-04-03T23:03:25.747Z,101307.44
2023-04-03T23:05:56.199Z,101316.84
2023-04-03T23:08:26.604Z,101317.50
2023-04-03T23:10:56.520Z,101326.03
2023-04-03T23:13:25.380Z,101313.78
2023-04-03T23:15:57.861Z,101322.19
2023-04-03T23:18:29.394Z,101331.47
2023-04-03T23:20:59.874Z,101335.63
2023-04-03T23:23:29.828Z,101327.66
2023-04-03T23:25:59.890Z,101336.16
2023-04-03T23:28:29.594Z,101331.53
2023-04-03T23:31:02.967Z,101338.03
2023-04-03T23:33:32.431Z,101335.19
2023-04-03T23:36:02.214Z,101337.53
2023-04-03T23:38:32.009Z,101339.75
2023-04-03T23:41:00.661Z,101341.97
2023-04-03T23:43:29.600Z,101341.59
2023-04-03T23:45:58.416Z,101342.25
2023-04-03T23:48:27.819Z,101336.97
2023-04-03T23:50:56.330Z,101330.94
2023-04-03T23:53:24.671Z,101335.16
2023-04-03T23:55:54.625Z,101328.22
2023-04-03T23:58:23.517Z,101330.78
